Terminal Aerodrome Forecast
Issued by NWS Sterling, VA

Current Version | Previous Version | Graphics & Text | Print | Product List | Glossary On
Versions: 1 2 3 4 5 6 7 8 9 10 11 12 13 14 15 16 17 18 19 20 21 22
881
FTUS41 KLWX 181131
TAFIAD
TAF
KIAD 181131Z 1812/1918 VRB04KT P6SM FEW060
     FM181400 25009KT P6SM FEW050
     FM182100 20007KT P6SM BKN050
     FM182300 17005KT P6SM OVC050
     FM190900 25007KT P6SM BKN050
     FM191200 27012G20KT P6SM SCT050 SCT250
     FM191600 29020G30KT P6SM BKN045=

USA.gov is the U.S. government's official web portal to all federal, state and local government web resources and services.